Station Historical Data
Daily Summary for February 15, 2017 Units:  English    Metric   Both
Next Day »
Daily Weekly Monthly Yearly Custom
  High: Low: Average:
Temperature: 57.8 °F 45.5 °F 52 °F
Dew Point: 44.6 °F 35.2 °F 39.2 °F
Humidity: 77% 47% 62%
Wind Speed: 14.0mph 0.0mph 3.4mph
Wind Gust: 21.0mph - -
Wind- - SE
Pressure: 30.20 in 30.00 in -
Precipitation: 0.00 in    
Historical Graphs
 
 
Tabular Data for February 15, 2017
Time Temperature Dew Point Pressure Wind Wind Speed Wind Gust Humidity Rainfall Rate (Hourly) solar Conditions
00:04 48.6 °F 39.3 °F 30.20 in ESE 1.0 mph 13.0 mph 70% 0.00 in 0.00 W/m2
00:09 48.7 °F 38.6 °F 30.20 in Calm   9.0 mph 68% 0.00 in 0.00 W/m2
00:14 48.8 °F 38.7 °F 30.20 in Calm   13.0 mph 68% 0.00 in 0.00 W/m2
00:19 48.8 °F 39.5 °F 30.20 in Calm   11.0 mph 70% 0.00 in 0.00 W/m2
00:24 48.9 °F 39.9 °F 30.20 in Calm   9.0 mph 71% 0.00 in 0.00 W/m2
00:29 48.8 °F 39.8 °F 30.19 in ESE 1.0 mph 2.0 mph 71% 0.00 in 0.00 W/m2
00:34 48.8 °F 39.5 °F 30.19 in ESE 8.0 mph 12.0 mph 70% 0.00 in 0.00 W/m2
00:39 48.7 °F 39.7 °F 30.19 in Calm   8.0 mph 71% 0.00 in 0.00 W/m2
00:44 48.6 °F 39.6 °F 30.19 in Calm   14.0 mph 71% 0.00 in 0.00 W/m2
00:49 48.4 °F 39.8 °F 30.19 in Calm   14.0 mph 72% 0.00 in 0.00 W/m2
00:54 48.3 °F 39.7 °F 30.19 in ESE 8.0 mph 15.0 mph 72% 0.00 in 0.00 W/m2
00:59 48.2 °F 39.2 °F 30.19 in East 7.0 mph 15.0 mph 71% 0.00 in 0.00 W/m2
01:04 48.1 °F 39.2 °F 30.18 in ESE 6.0 mph 13.0 mph 71% 0.00 in 0.00 W/m2
01:09 48.1 °F 39.2 °F 30.18 in East 9.0 mph 15.0 mph 71% 0.00 in 0.00 W/m2
01:14 48.1 °F 38.8 °F 30.18 in SE 8.0 mph 15.0 mph 70% 0.00 in 0.00 W/m2
01:19 48.2 °F 38.9 °F 30.18 in ESE 6.0 mph 18.0 mph 70% 0.00 in 0.00 W/m2
01:24 48.2 °F 39.2 °F 30.18 in East 4.0 mph 14.0 mph 71% 0.00 in 0.00 W/m2
01:29 48.2 °F 39.2 °F 30.18 in Calm   14.0 mph 71% 0.00 in 0.00 W/m2
01:34 48.2 °F 39.2 °F 30.18 in Calm   16.0 mph 71% 0.00 in 0.00 W/m2
01:39 48.1 °F 38.4 °F 30.19 in ESE 8.0 mph 13.0 mph 69% 0.00 in 0.00 W/m2
01:44 48.1 °F 38.4 °F 30.19 in ESE 9.0 mph 13.0 mph 69% 0.00 in 0.00 W/m2
01:49 48.1 °F 39.2 °F 30.19 in Calm   12.0 mph 71% 0.00 in 0.00 W/m2
01:54 48.0 °F 38.7 °F 30.19 in Calm   9.0 mph 70% 0.00 in 0.00 W/m2
01:59 47.9 °F 39.0 °F 30.19 in Calm     71% 0.00 in 0.00 W/m2
02:04 47.8 °F 38.5 °F 30.19 in Calm     70% 0.00 in 0.00 W/m2
02:09 47.7 °F 38.4 °F 30.19 in Calm     70% 0.00 in 0.00 W/m2
02:14 47.6 °F 38.0 °F 30.19 in Calm     69% 0.00 in 0.00 W/m2
02:19 47.6 °F 38.7 °F 30.19 in Calm     71% 0.00 in 0.00 W/m2
02:24 47.5 °F 38.6 °F 30.19 in Calm     71% 0.00 in 0.00 W/m2
02:29 47.3 °F 38.4 °F 30.19 in Calm     71% 0.00 in 0.00 W/m2
02:34 46.9 °F 37.6 °F 30.19 in Calm     70% 0.00 in 0.00 W/m2
02:40 46.7 °F 37.5 °F 30.18 in Calm     70% 0.00 in 0.00 W/m2
02:45 46.6 °F 38.1 °F 30.17 in Calm     72% 0.00 in 0.00 W/m2
02:50 46.5 °F 38.0 °F 30.17 in ESE 1.0 mph 2.0 mph 72% 0.00 in 0.00 W/m2
02:55 46.5 °F 38.3 °F 30.17 in Calm   4.0 mph 73% 0.00 in 0.00 W/m2
03:00 46.4 °F 38.2 °F 30.17 in Calm   11.0 mph 73% 0.00 in 0.00 W/m2
03:05 46.4 °F 38.2 °F 30.17 in Calm   4.0 mph 73% 0.00 in 0.00 W/m2
03:10 46.4 °F 39.6 °F 30.16 in East 9.0 mph 13.0 mph 77% 0.00 in 0.00 W/m2
03:15 46.3 °F 38.1 °F 30.16 in East 9.0 mph 14.0 mph 73% 0.00 in 0.00 W/m2
03:20 46.3 °F 38.1 °F 30.16 in East 7.0 mph 14.0 mph 73% 0.00 in 0.00 W/m2
03:25 46.3 °F 37.8 °F 30.16 in Calm   15.0 mph 72% 0.00 in 0.00 W/m2
03:30 46.3 °F 37.8 °F 30.16 in East 12.0 mph 14.0 mph 72% 0.00 in 0.00 W/m2
03:35 46.3 °F 37.8 °F 30.15 in ESE 11.0 mph 15.0 mph 72% 0.00 in 0.00 W/m2
03:40 46.4 °F 37.9 °F 30.14 in SE 5.0 mph 16.0 mph 72% 0.00 in 0.00 W/m2
03:45 46.4 °F 37.9 °F 30.14 in East 11.0 mph 15.0 mph 72% 0.00 in 0.00 W/m2
03:50 46.5 °F 37.6 °F 30.13 in East 11.0 mph 15.0 mph 71% 0.00 in 0.00 W/m2
03:55 46.6 °F 37.3 °F 30.14 in ESE 8.0 mph 15.0 mph 70% 0.00 in 0.00 W/m2
04:00 46.7 °F 37.5 °F 30.13 in East 5.0 mph 13.0 mph 70% 0.00 in 0.00 W/m2
04:05 46.9 °F 37.6 °F 30.12 in ESE 9.0 mph 20.0 mph 70% 0.00 in 0.00 W/m2
04:10 47.0 °F 37.7 °F 30.12 in ESE 9.0 mph 19.0 mph 70% 0.00 in 0.00 W/m2
04:15 47.0 °F 37.4 °F 30.13 in Calm   14.0 mph 69% 0.00 in 0.00 W/m2
04:20 47.2 °F 37.2 °F 30.13 in ESE 5.0 mph 18.0 mph 68% 0.00 in 0.00 W/m2
04:25 47.2 °F 36.8 °F 30.14 in East 7.0 mph 12.0 mph 67% 0.00 in 0.00 W/m2
04:30 47.3 °F 36.9 °F 30.14 in East 5.0 mph 9.0 mph 67% 0.00 in 0.00 W/m2
04:35 47.4 °F 37.0 °F 30.14 in Calm   2.0 mph 67% 0.00 in 0.00 W/m2
04:40 47.4 °F 37.4 °F 30.13 in East 6.0 mph 13.0 mph 68% 0.00 in 0.00 W/m2
04:45 47.4 °F 37.8 °F 30.13 in Calm   12.0 mph 69% 0.00 in 0.00 W/m2
04:50 47.3 °F 37.3 °F 30.13 in Calm   13.0 mph 68% 0.00 in 0.00 W/m2
04:55 47.2 °F 37.2 °F 30.13 in East 5.0 mph 13.0 mph 68% 0.00 in 0.00 W/m2
05:00 47.1 °F 37.1 °F 30.13 in ESE 2.0 mph 12.0 mph 68% 0.00 in 0.00 W/m2
05:05 47.0 °F 37.4 °F 30.13 in East 11.0 mph 13.0 mph 69% 0.00 in 0.00 W/m2
05:10 46.9 °F 37.3 °F 30.13 in East 6.0 mph 13.0 mph 69% 0.00 in 0.00 W/m2
05:15 46.8 °F 37.2 °F 30.14 in Calm   13.0 mph 69% 0.00 in 0.00 W/m2
05:20 46.7 °F 36.7 °F 30.14 in Calm   14.0 mph 68% 0.00 in 0.00 W/m2
05:26 46.7 °F 36.7 °F 30.14 in East 6.0 mph 14.0 mph 68% 0.00 in 0.00 W/m2
05:31 46.7 °F 37.1 °F 30.14 in Calm   13.0 mph 69% 0.00 in 0.00 W/m2
05:36 46.6 °F 37.3 °F 30.14 in ESE 7.0 mph 18.0 mph 70% 0.00 in 0.00 W/m2
05:41 46.5 °F 36.5 °F 30.14 in ESE 9.0 mph 14.0 mph 68% 0.00 in 0.00 W/m2
05:46 46.4 °F 36.8 °F 30.15 in ESE 6.0 mph 12.0 mph 69% 0.00 in 0.00 W/m2
05:51 46.4 °F 36.4 °F 30.15 in ESE 2.0 mph 11.0 mph 68% 0.00 in 0.00 W/m2
05:56 46.4 °F 36.4 °F 30.15 in ESE 1.0 mph 9.0 mph 68% 0.00 in 0.00 W/m2
06:01 46.3 °F 36.3 °F 30.15 in Calm   1.0 mph 68% 0.00 in 0.00 W/m2
06:06 46.3 °F 36.3 °F 30.15 in Calm   8.0 mph 68% 0.00 in 0.00 W/m2
06:11 46.2 °F 36.6 °F 30.15 in East 1.0 mph 1.0 mph 69% 0.00 in 0.00 W/m2
06:16 46.1 °F 36.5 °F 30.16 in East 2.0 mph 2.0 mph 69% 0.00 in 0.00 W/m2
06:21 45.9 °F 36.3 °F 30.16 in ESE 1.0 mph 2.0 mph 69% 0.00 in 0.00 W/m2
06:26 45.8 °F 36.2 °F 30.16 in Calm     69% 0.00 in 0.00 W/m2
06:31 45.8 °F 35.8 °F 30.16 in Calm     68% 0.00 in 0.00 W/m2
06:36 45.7 °F 36.1 °F 30.16 in Calm     69% 0.00 in 0.00 W/m2
06:41 45.6 °F 36.0 °F 30.16 in East 1.0 mph 1.0 mph 69% 0.00 in 0.00 W/m2
06:46 45.6 °F 35.7 °F 30.16 in Calm   1.0 mph 68% 0.00 in 5.00 W/m2
06:51 45.6 °F 36.0 °F 30.17 in Calm     69% 0.00 in 5.00 W/m2
06:56 45.6 °F 35.7 °F 30.17 in Calm     68% 0.00 in 5.00 W/m2
07:01 45.6 °F 36.0 °F 30.18 in Calm     69% 0.00 in 11.00 W/m2
07:06 45.6 °F 35.7 °F 30.18 in Calm     68% 0.00 in 16.00 W/m2
07:11 45.5 °F 35.6 °F 30.18 in Calm     68% 0.00 in 23.00 W/m2
07:16 45.5 °F 35.2 °F 30.18 in Calm     67% 0.00 in 32.00 W/m2
07:21 45.6 °F 35.7 °F 30.18 in Calm     68% 0.00 in 40.00 W/m2
07:26 45.6 °F 36.0 °F 30.18 in East 1.0 mph 5.0 mph 69% 0.00 in 69.00 W/m2
07:31 45.6 °F 36.4 °F 30.18 in Calm   5.0 mph 70% 0.00 in 77.00 W/m2
07:36 45.6 °F 36.4 °F 30.17 in ESE 2.0 mph 4.0 mph 70% 0.00 in 69.00 W/m2
07:41 45.7 °F 36.1 °F 30.17 in SE 2.0 mph 7.0 mph 69% 0.00 in 77.00 W/m2
07:46 45.9 °F 36.3 °F 30.17 in Calm   4.0 mph 69% 0.00 in 125.00 W/m2
07:51 46.0 °F 36.0 °F 30.17 in ESE 1.0 mph 15.0 mph 68% 0.00 in 162.00 W/m2
07:56 46.2 °F 35.9 °F 30.17 in ESE 8.0 mph 8.0 mph 67% 0.00 in 163.00 W/m2
08:01 46.4 °F 35.3 °F 30.17 in Calm   21.0 mph 65% 0.00 in 151.00 W/m2
08:06 46.7 °F 36.0 °F 30.18 in Calm   15.0 mph 66% 0.00 in 195.00 W/m2
08:11 47.0 °F 36.6 °F 30.17 in East 6.0 mph 13.0 mph 67% 0.00 in 206.00 W/m2
08:17 47.3 °F 35.8 °F 30.17 in East 2.0 mph 6.0 mph 64% 0.00 in 202.00 W/m2
08:22 47.6 °F 36.4 °F 30.18 in East 2.0 mph 11.0 mph 65% 0.00 in 258.00 W/m2
08:27 47.8 °F 36.2 °F 30.18 in ESE 9.0 mph 14.0 mph 64% 0.00 in 227.00 W/m2
08:32 48.1 °F 36.5 °F 30.18 in Calm   5.0 mph 64% 0.00 in 258.00 W/m2
08:37 48.4 °F 36.4 °F 30.19 in Calm   13.0 mph 63% 0.00 in 185.00 W/m2
08:42 48.7 °F 36.3 °F 30.19 in ESE 1.0 mph 2.0 mph 62% 0.00 in 130.00 W/m2
08:47 48.9 °F 36.9 °F 30.18 in Calm   8.0 mph 63% 0.00 in 132.00 W/m2
08:52 49.3 °F 37.7 °F 30.19 in Calm   2.0 mph 64% 0.00 in 125.00 W/m2
08:57 49.6 °F 37.5 °F 30.19 in Calm   1.0 mph 63% 0.00 in 107.00 W/m2
09:02 49.8 °F 38.1 °F 30.20 in Calm   1.0 mph 64% 0.00 in 93.00 W/m2
09:07 50.0 °F 37.5 °F 30.20 in Calm   1.0 mph 62% 0.00 in 97.00 W/m2
09:12 50.2 °F 38.1 °F 30.20 in ESE 1.0 mph 1.0 mph 63% 0.00 in 113.00 W/m2
09:17 50.4 °F 39.1 °F 30.20 in Calm   2.0 mph 65% 0.00 in 148.00 W/m2
09:22 50.5 °F 39.2 °F 30.20 in Calm   1.0 mph 65% 0.00 in 137.00 W/m2
09:27 50.7 °F 39.8 °F 30.20 in Calm   1.0 mph 66% 0.00 in 121.00 W/m2
09:32 50.8 °F 39.9 °F 30.20 in SE 1.0 mph 1.0 mph 66% 0.00 in 102.00 W/m2
09:37 50.9 °F 39.2 °F 30.20 in SE 1.0 mph 2.0 mph 64% 0.00 in 123.00 W/m2
09:42 51.1 °F 40.5 °F 30.20 in Calm   1.0 mph 67% 0.00 in 113.00 W/m2
09:47 51.2 °F 41.4 °F 30.19 in Calm   2.0 mph 69% 0.00 in 134.00 W/m2
09:52 51.4 °F 40.4 °F 30.19 in Calm   2.0 mph 66% 0.00 in 153.00 W/m2
09:57 51.5 °F 40.5 °F 30.19 in SE 1.0 mph 4.0 mph 66% 0.00 in 139.00 W/m2
10:02 51.6 °F 40.6 °F 30.19 in SE 1.0 mph 1.0 mph 66% 0.00 in 165.00 W/m2
10:08 51.8 °F 40.8 °F 30.19 in Calm   4.0 mph 66% 0.00 in 169.00 W/m2
10:13 51.8 °F 40.0 °F 30.19 in Calm   1.0 mph 64% 0.00 in 158.00 W/m2
10:18 52.0 °F 40.2 °F 30.18 in ESE 1.0 mph 2.0 mph 64% 0.00 in 139.00 W/m2
10:23 52.1 °F 39.1 °F 30.19 in Calm   4.0 mph 61% 0.00 in 114.00 W/m2
10:28 52.2 °F 40.0 °F 30.19 in Calm     63% 0.00 in 111.00 W/m2
10:33 52.4 °F 40.6 °F 30.19 in Calm   2.0 mph 64% 0.00 in 125.00 W/m2
10:38 52.4 °F 40.2 °F 30.19 in Calm   1.0 mph 63% 0.00 in 206.00 W/m2
10:43 52.5 °F 40.7 °F 30.20 in Calm     64% 0.00 in 174.00 W/m2
10:48 52.6 °F 40.8 °F 30.20 in Calm     64% 0.00 in 139.00 W/m2
10:53 52.8 °F 41.4 °F 30.19 in Calm     65% 0.00 in 125.00 W/m2
10:58 52.8 °F 42.2 °F 30.19 in Calm   2.0 mph 67% 0.00 in 123.00 W/m2
11:03 52.9 °F 41.9 °F 30.19 in Calm   1.0 mph 66% 0.00 in 128.00 W/m2
11:08 53.0 °F 42.0 °F 30.19 in Calm   1.0 mph 66% 0.00 in 146.00 W/m2
11:13 53.1 °F 42.1 °F 30.19 in Calm     66% 0.00 in 149.00 W/m2
11:18 53.1 °F 42.5 °F 30.19 in Calm     67% 0.00 in 162.00 W/m2
11:23 53.2 °F 42.9 °F 30.20 in Calm     68% 0.00 in 130.00 W/m2
11:28 53.2 °F 42.9 °F 30.19 in Calm     68% 0.00 in 113.00 W/m2
11:33 53.2 °F 43.3 °F 30.19 in Calm     69% 0.00 in 111.00 W/m2
11:38 53.3 °F 42.6 °F 30.19 in Calm     67% 0.00 in 93.00 W/m2
11:43 53.3 °F 42.6 °F 30.19 in Calm     67% 0.00 in 77.00 W/m2
11:48 53.3 °F 42.6 °F 30.18 in Calm     67% 0.00 in 93.00 W/m2
11:53 53.4 °F 42.7 °F 30.18 in Calm     67% 0.00 in 98.00 W/m2
11:58 53.3 °F 43.0 °F 30.18 in Calm     68% 0.00 in 98.00 W/m2
12:03 53.4 °F 42.7 °F 30.18 in Calm     67% 0.00 in 95.00 W/m2
12:13 53.3 °F 42.6 °F 30.17 in Calm     67% 0.00 in 120.00 W/m2
12:18 53.2 °F 42.9 °F 30.17 in Calm     68% 0.00 in 139.00 W/m2
12:23 53.3 °F 43.8 °F 30.17 in Calm     70% 0.00 in 142.00 W/m2
12:28 53.3 °F 43.4 °F 30.17 in Calm     69% 0.00 in 171.00 W/m2
12:33 53.3 °F 43.8 °F 30.17 in Calm     70% 0.00 in 216.00 W/m2
12:38 53.3 °F 43.8 °F 30.16 in Calm     70% 0.00 in 199.00 W/m2
12:43 53.4 °F 44.2 °F 30.16 in Calm     71% 0.00 in 297.00 W/m2
12:48 53.5 °F 44.0 °F 30.16 in Calm     70% 0.00 in 237.00 W/m2
12:53 53.6 °F 43.7 °F 30.16 in Calm     69% 0.00 in 281.00 W/m2
12:58 53.8 °F 44.6 °F 30.15 in Calm   5.0 mph 71% 0.00 in 258.00 W/m2
13:03 54.1 °F 42.6 °F 30.15 in Calm   4.0 mph 65% 0.00 in 206.00 W/m2
13:08 54.3 °F 42.4 °F 30.15 in Calm   4.0 mph 64% 0.00 in 257.00 W/m2
13:13 54.6 °F 42.3 °F 30.14 in SE 4.0 mph 8.0 mph 63% 0.00 in 250.00 W/m2
13:18 54.9 °F 43.0 °F 30.13 in SE 7.0 mph 14.0 mph 64% 0.00 in 199.00 W/m2
13:23 55.2 °F 42.0 °F 30.13 in SE 2.0 mph 8.0 mph 61% 0.00 in 237.00 W/m2
13:28 55.5 °F 41.9 °F 30.13 in Calm   6.0 mph 60% 0.00 in 216.00 W/m2
13:33 55.7 °F 42.5 °F 30.13 in SE 4.0 mph 7.0 mph 61% 0.00 in 186.00 W/m2
13:38 55.9 °F 41.8 °F 30.13 in SE 2.0 mph 6.0 mph 59% 0.00 in 197.00 W/m2
13:44 56.0 °F 41.9 °F 30.12 in SE 1.0 mph 6.0 mph 59% 0.00 in 162.00 W/m2
13:49 56.1 °F 42.4 °F 30.12 in Calm   4.0 mph 60% 0.00 in 167.00 W/m2
13:54 56.2 °F 42.5 °F 30.12 in Calm   5.0 mph 60% 0.00 in 114.00 W/m2
13:59 56.3 °F 43.0 °F 30.12 in ESE 1.0 mph 6.0 mph 61% 0.00 in 104.00 W/m2
14:04 56.3 °F 43.0 °F 30.12 in Calm   5.0 mph 61% 0.00 in 114.00 W/m2
14:09 56.3 °F 42.6 °F 30.12 in SE 1.0 mph 5.0 mph 60% 0.00 in 118.00 W/m2
14:14 56.2 °F 42.1 °F 30.11 in SE 1.0 mph 5.0 mph 59% 0.00 in 172.00 W/m2
14:19 56.3 °F 42.6 °F 30.11 in SSE 1.0 mph 6.0 mph 60% 0.00 in 167.00 W/m2
14:24 56.3 °F 43.0 °F 30.11 in SSE 2.0 mph 9.0 mph 61% 0.00 in 171.00 W/m2
14:29 56.3 °F 41.3 °F 30.10 in South 5.0 mph 9.0 mph 57% 0.00 in 174.00 W/m2
14:34 56.4 °F 41.8 °F 30.10 in Calm   7.0 mph 58% 0.00 in 162.00 W/m2
14:39 56.4 °F 42.3 °F 30.09 in Calm   5.0 mph 59% 0.00 in 109.00 W/m2
14:44 56.5 °F 41.9 °F 30.09 in SSE 2.0 mph 5.0 mph 58% 0.00 in 135.00 W/m2
14:49 56.6 °F 42.5 °F 30.09 in SSE 1.0 mph 6.0 mph 59% 0.00 in 137.00 W/m2
14:54 56.6 °F 42.9 °F 30.10 in South 4.0 mph 5.0 mph 60% 0.00 in 123.00 W/m2
14:59 56.7 °F 43.4 °F 30.09 in South 2.0 mph 6.0 mph 61% 0.00 in 183.00 W/m2
15:04 56.7 °F 43.0 °F 30.10 in South 3.0 mph 3.0 mph 60% 0.00 in 206.00 W/m2
15:09 56.7 °F 43.0 °F 30.09 in South 4.0 mph 4.0 mph 60% 0.00 in 223.00 W/m2
15:14 56.8 °F 41.8 °F 30.09 in South 4.0 mph 7.0 mph 57% 0.00 in 396.00 W/m2
15:19 56.8 °F 42.2 °F 30.09 in SSE 2.0 mph 7.0 mph 58% 0.00 in 345.00 W/m2
15:24 57.0 °F 41.0 °F 30.09 in South 1.0 mph 10.0 mph 55% 0.00 in 274.00 W/m2
15:34 57.4 °F 41.8 °F 30.09 in SSE 4.0 mph 5.0 mph 56% 0.00 in 179.00 W/m2
15:39 57.6 °F 42.0 °F 30.09 in South 4.0 mph 12.0 mph 56% 0.00 in 199.00 W/m2
15:44 57.7 °F 41.2 °F 30.09 in South 1.0 mph 10.0 mph 54% 0.00 in 316.00 W/m2
15:49 57.8 °F 42.2 °F 30.07 in SSE 2.0 mph 10.0 mph 56% 0.00 in 229.00 W/m2
15:54 57.8 °F 42.2 °F 30.07 in SSE 2.0 mph 10.0 mph 56% 0.00 in 218.00 W/m2
15:59 57.7 °F 42.1 °F 30.07 in South 9.0 mph 10.0 mph 56% 0.00 in 316.00 W/m2
16:04 57.7 °F 41.7 °F 30.07 in SSE 8.0 mph 8.0 mph 55% 0.00 in 95.00 W/m2
16:09 57.6 °F 42.0 °F 30.07 in Calm   10.0 mph 56% 0.00 in 98.00 W/m2
16:14 57.5 °F 43.3 °F 30.08 in South 1.0 mph 4.0 mph 59% 0.00 in 109.00 W/m2
16:19 57.3 °F 42.7 °F 30.07 in Calm   12.0 mph 58% 0.00 in 148.00 W/m2
16:24 57.2 °F 42.6 °F 30.08 in Calm   15.0 mph 58% 0.00 in 84.00 W/m2
16:29 57.0 °F 42.4 °F 30.08 in SSE 12.0 mph 12.0 mph 58% 0.00 in 72.00 W/m2
16:34 56.9 °F 40.9 °F 30.08 in SSE 1.0 mph 16.0 mph 55% 0.00 in 65.00 W/m2
16:39 56.8 °F 41.3 °F 30.08 in South 8.0 mph 11.0 mph 56% 0.00 in 51.00 W/m2
16:44 56.8 °F 40.3 °F 30.08 in SSE 6.0 mph 12.0 mph 54% 0.00 in 47.00 W/m2
16:49 56.8 °F 39.9 °F 30.09 in SSE 10.0 mph 14.0 mph 53% 0.00 in 44.00 W/m2
16:50 56.8 °F 39.9 °F 30.09 in SSE 6.0 mph 14.0 mph 53% 0.00 in 44.00 W/m2
16:55 56.8 °F 40.3 °F 30.09 in SSE 9.0 mph 11.0 mph 54% 0.00 in 33.00 W/m2
17:00 56.8 °F 39.4 °F 30.09 in SSE 10.0 mph 15.0 mph 52% 0.00 in 32.00 W/m2
17:05 56.8 °F 40.3 °F 30.08 in South 2.0 mph 17.0 mph 54% 0.00 in 30.00 W/m2
17:10 56.7 °F 39.3 °F 30.08 in Calm   14.0 mph 52% 0.00 in 18.00 W/m2
17:15 56.7 °F 39.8 °F 30.08 in Calm   19.0 mph 53% 0.00 in 7.00 W/m2
17:20 56.6 °F 39.7 °F 30.08 in South 8.0 mph 12.0 mph 53% 0.00 in 7.00 W/m2
17:25 56.5 °F 39.6 °F 30.08 in SE 6.0 mph 12.0 mph 53% 0.00 in 5.00 W/m2
17:30 56.4 °F 39.5 °F 30.08 in SSE 7.0 mph 14.0 mph 53% 0.00 in 5.00 W/m2
17:35 56.3 °F 38.9 °F 30.08 in SE 8.0 mph 13.0 mph 52% 0.00 in 5.00 W/m2
17:40 56.2 °F 39.8 °F 30.07 in South 5.0 mph 14.0 mph 54% 0.00 in 0.00 W/m2
17:45 56.0 °F 39.1 °F 30.08 in ESE 12.0 mph 13.0 mph 53% 0.00 in 0.00 W/m2
17:50 55.9 °F 39.0 °F 30.08 in SSE 7.0 mph 17.0 mph 53% 0.00 in 0.00 W/m2
17:55 55.8 °F 39.4 °F 30.08 in SSE 5.0 mph 14.0 mph 54% 0.00 in 0.00 W/m2
18:00 55.7 °F 39.3 °F 30.07 in SE 6.0 mph 16.0 mph 54% 0.00 in 0.00 W/m2
18:05 55.6 °F 37.8 °F 30.08 in SSE 7.0 mph 13.0 mph 51% 0.00 in 0.00 W/m2
18:10 55.6 °F 39.2 °F 30.07 in Calm   11.0 mph 54% 0.00 in 0.00 W/m2
18:15 55.5 °F 38.7 °F 30.07 in Calm   12.0 mph 53% 0.00 in 0.00 W/m2
18:20 55.4 °F 40.0 °F 30.07 in SSE 6.0 mph 14.0 mph 56% 0.00 in 0.00 W/m2
18:25 55.3 °F 39.4 °F 30.08 in Calm   12.0 mph 55% 0.00 in 0.00 W/m2
18:30 55.2 °F 40.7 °F 30.07 in SSE 4.0 mph 12.0 mph 58% 0.00 in 0.00 W/m2
18:35 55.1 °F 40.2 °F 30.07 in SE 8.0 mph 13.0 mph 57% 0.00 in 0.00 W/m2
18:40 55.0 °F 40.5 °F 30.07 in SE 5.0 mph 18.0 mph 58% 0.00 in 0.00 W/m2
18:46 54.8 °F 40.3 °F 30.07 in SE 7.0 mph 12.0 mph 58% 0.00 in 0.00 W/m2
18:51 54.7 °F 40.7 °F 30.07 in SE 7.0 mph 15.0 mph 59% 0.00 in 0.00 W/m2
18:56 54.6 °F 40.6 °F 30.07 in SE 7.0 mph 12.0 mph 59% 0.00 in 0.00 W/m2
19:01 54.6 °F 40.6 °F 30.07 in SE 7.0 mph 13.0 mph 59% 0.00 in 0.00 W/m2
19:06 54.5 °F 40.0 °F 30.07 in SSE 11.0 mph 14.0 mph 58% 0.00 in 0.00 W/m2
19:11 54.5 °F 39.1 °F 30.07 in SE 11.0 mph 13.0 mph 56% 0.00 in 0.00 W/m2
19:16 54.6 °F 39.7 °F 30.07 in SSE 11.0 mph 17.0 mph 57% 0.00 in 0.00 W/m2
19:21 54.7 °F 39.8 °F 30.07 in SSE 8.0 mph 17.0 mph 57% 0.00 in 0.00 W/m2
19:26 54.8 °F 39.9 °F 30.07 in SE 9.0 mph 10.0 mph 57% 0.00 in 0.00 W/m2
19:31 54.9 °F 40.4 °F 30.07 in SSE 7.0 mph 13.0 mph 58% 0.00 in 0.00 W/m2
19:36 54.9 °F 40.4 °F 30.06 in SSE 1.0 mph 14.0 mph 58% 0.00 in 0.00 W/m2
19:41 54.9 °F 40.4 °F 30.07 in SE 7.0 mph 13.0 mph 58% 0.00 in 0.00 W/m2
19:46 55.0 °F 40.5 °F 30.07 in SE 6.0 mph 16.0 mph 58% 0.00 in 0.00 W/m2
19:51 55.0 °F 40.1 °F 30.06 in SSE 9.0 mph 17.0 mph 57% 0.00 in 0.00 W/m2
19:56 55.1 °F 40.2 °F 30.06 in SE 8.0 mph 18.0 mph 57% 0.00 in 0.00 W/m2
20:01 55.2 °F 39.8 °F 30.07 in SSE 9.0 mph 13.0 mph 56% 0.00 in 0.00 W/m2
20:06 55.3 °F 40.3 °F 30.06 in SE 5.0 mph 17.0 mph 57% 0.00 in 0.00 W/m2
20:11 55.4 °F 40.0 °F 30.06 in SSE 10.0 mph 16.0 mph 56% 0.00 in 0.00 W/m2
20:16 55.4 °F 40.0 °F 30.06 in SSE 2.0 mph 5.0 mph 56% 0.00 in 0.00 W/m2
20:21 55.4 °F 40.0 °F 30.06 in SSE 8.0 mph 8.0 mph 56% 0.00 in 0.00 W/m2
20:26 55.3 °F 39.9 °F 30.06 in South 11.0 mph 11.0 mph 56% 0.00 in 0.00 W/m2
20:31 55.3 °F 39.4 °F 30.06 in SSE 7.0 mph 10.0 mph 55% 0.00 in 0.00 W/m2
20:36 55.3 °F 39.9 °F 30.06 in SE 14.0 mph 14.0 mph 56% 0.00 in 0.00 W/m2
20:41 55.3 °F 39.0 °F 30.06 in SSE 2.0 mph 2.0 mph 54% 0.00 in 0.00 W/m2
20:46 55.4 °F 38.6 °F 30.06 in SSE 10.0 mph 11.0 mph 53% 0.00 in 0.00 W/m2
20:51 55.4 °F 38.6 °F 30.06 in SE 7.0 mph 12.0 mph 53% 0.00 in 0.00 W/m2
20:56 55.5 °F 37.7 °F 30.06 in SE 9.0 mph 9.0 mph 51% 0.00 in 0.00 W/m2
21:01 55.6 °F 38.3 °F 30.06 in SSE 4.0 mph 7.0 mph 52% 0.00 in 0.00 W/m2
21:06 55.7 °F 38.4 °F 30.06 in SSE 5.0 mph 6.0 mph 52% 0.00 in 0.00 W/m2
21:11 55.7 °F 38.4 °F 30.06 in SSE 7.0 mph 7.0 mph 52% 0.00 in 0.00 W/m2
21:16 55.7 °F 38.4 °F 30.05 in Calm   4.0 mph 52% 0.00 in 0.00 W/m2
21:21 55.7 °F 37.9 °F 30.04 in SSE 8.0 mph 12.0 mph 51% 0.00 in 0.00 W/m2
21:26 55.7 °F 37.9 °F 30.05 in SSE 9.0 mph 10.0 mph 51% 0.00 in 0.00 W/m2
21:31 55.7 °F 37.4 °F 30.05 in SSE 10.0 mph 12.0 mph 50% 0.00 in 0.00 W/m2
21:36 55.8 °F 37.5 °F 30.03 in SSE 8.0 mph 11.0 mph 50% 0.00 in 0.00 W/m2
21:41 55.8 °F 36.4 °F 30.03 in SE 9.0 mph 11.0 mph 48% 0.00 in 0.00 W/m2
21:46 55.9 °F 36.5 °F 30.04 in SSE 8.0 mph 10.0 mph 48% 0.00 in 0.00 W/m2
21:51 56.0 °F 36.6 °F 30.05 in SSE 7.0 mph 7.0 mph 48% 0.00 in 0.00 W/m2
21:56 56.0 °F 36.1 °F 30.05 in SSE 10.0 mph 11.0 mph 47% 0.00 in 0.00 W/m2
22:01 56.1 °F 37.2 °F 30.04 in SE 10.0 mph 10.0 mph 49% 0.00 in 0.00 W/m2
22:06 56.1 °F 37.2 °F 30.04 in South 10.0 mph 16.0 mph 49% 0.00 in 0.00 W/m2
22:11 56.1 °F 36.2 °F 30.05 in Calm   1.0 mph 47% 0.00 in 0.00 W/m2
22:16 56.1 °F 36.2 °F 30.05 in Calm     47% 0.00 in 0.00 W/m2
22:22 56.1 °F 36.2 °F 30.05 in Calm   1.0 mph 47% 0.00 in 0.00 W/m2
22:27 56.1 °F 36.2 °F 30.04 in South 9.0 mph 13.0 mph 47% 0.00 in 0.00 W/m2
22:32 56.1 °F 37.2 °F 30.03 in SSE 7.0 mph 12.0 mph 49% 0.00 in 0.00 W/m2
22:37 56.1 °F 36.2 °F 30.03 in South 9.0 mph 11.0 mph 47% 0.00 in 0.00 W/m2
22:42 56.0 °F 36.6 °F 30.03 in SSE 10.0 mph 13.0 mph 48% 0.00 in 0.00 W/m2
22:47 56.0 °F 36.1 °F 30.03 in SSE 10.0 mph 17.0 mph 47% 0.00 in 0.00 W/m2
22:52 56.0 °F 36.1 °F 30.03 in SSE 8.0 mph 9.0 mph 47% 0.00 in 0.00 W/m2
22:57 56.0 °F 36.1 °F 30.02 in SE 7.0 mph 11.0 mph 47% 0.00 in 0.00 W/m2
23:02 55.9 °F 36.5 °F 30.02 in South 6.0 mph 9.0 mph 48% 0.00 in 0.00 W/m2
23:07 55.9 °F 36.0 °F 30.02 in Calm   10.0 mph 47% 0.00 in 0.00 W/m2
23:12 55.9 °F 36.0 °F 30.02 in South 8.0 mph 10.0 mph 47% 0.00 in 0.00 W/m2
23:17 55.9 °F 38.5 °F 30.03 in SSW 3.0 mph 9.0 mph 52% 0.00 in 0.00 W/m2
23:22 55.8 °F 38.5 °F 30.03 in South 7.0 mph 8.0 mph 52% 0.00 in 0.00 W/m2
23:27 55.6 °F 36.8 °F 30.01 in SSE 4.0 mph 7.0 mph 49% 0.00 in 0.00 W/m2
23:32 55.5 °F 37.2 °F 30.01 in SSE 7.0 mph 10.0 mph 50% 0.00 in 0.00 W/m2
23:37 55.4 °F 36.6 °F 30.01 in SSE 1.0 mph 8.0 mph 49% 0.00 in 0.00 W/m2
23:42 55.3 °F 36.5 °F 30.01 in SSE 6.0 mph 10.0 mph 49% 0.00 in 0.00 W/m2
23:47 55.1 °F 37.3 °F 30.00 in Calm   10.0 mph 51% 0.00 in 0.00 W/m2
23:52 55.0 °F 37.7 °F 30.01 in Calm     52% 0.00 in 0.00 W/m2
23:57 54.8 °F 39.9 °F 30.00 in SSE 10.0 mph 10.0 mph 57% 0.00 in 0.00 W/m2
Foresthill Weather
 WU-history PHP script courtesy of   Juneau County Weather.
powered by Cumulus v1.9.3 (1059)
Ambient Weather VWS v14.00
Top Contact Website Map Copyright © 2007 - 2018 Foresthillweather.com Never base important decisions on this or any weather information obtained from the Internet